Time;durP1;ratioP1;P1;durP2;ratioP2;P2;SDS_P1;SDS_P2;PMS_P1;PMS_P2;Temp;Humidity;BMP_temperature;BMP_pressure;BME280_temperature;BME280_humidity;BME280_pressure;Samples;Min_cycle;Max_cycle;Signal;HPM_P1;HPM_P2
2022/03/23 00:01:22;;;;;;;44.75;28.20;;;;;;;6.89;63.66;102918.88;4974177;28;20069;-84
2022/03/23 00:03:48;;;;;;;41.33;28.60;;;;;;;6.85;63.54;102919.84;4971217;28;20035;-84
2022/03/23 00:06:14;;;;;;;41.20;28.38;;;;;;;6.80;64.05;102919.06;4971776;28;20030;-84
2022/03/23 00:08:39;;;;;;;42.15;27.98;;;;;;;6.77;64.57;102924.38;4971657;28;20476;-84
2022/03/23 00:11:05;;;;;;;44.70;29.30;;;;;;;6.73;64.04;102916.66;4969522;28;20085;-84
2022/03/23 00:13:30;;;;;;;45.35;28.65;;;;;;;6.68;64.27;102922.00;4969730;28;20428;-84
2022/03/23 00:15:56;;;;;;;43.22;28.02;;;;;;;6.64;64.67;102920.38;4970387;28;20483;-84
2022/03/23 00:18:22;;;;;;;42.22;28.95;;;;;;;6.59;64.55;102920.47;4967229;28;20070;-84
2022/03/23 00:20:47;;;;;;;47.17;29.02;;;;;;;6.56;64.33;102922.31;4970243;28;20033;-84
2022/03/23 00:23:13;;;;;;;45.88;28.85;;;;;;;6.54;64.74;102918.88;4971022;28;20042;-84
2022/03/23 00:25:39;;;;;;;41.53;28.35;;;;;;;6.48;65.08;102926.88;4969060;28;20027;-84
2022/03/23 00:28:05;;;;;;;44.17;28.85;;;;;;;6.44;65.39;102930.44;4970975;28;20050;-84
2022/03/23 00:30:32;;;;;;;44.90;28.65;;;;;;;6.42;65.81;102933.09;4966266;28;20023;-84
2022/03/23 00:32:58;;;;;;;39.78;27.80;;;;;;;6.37;65.39;102926.22;4950726;28;20038;-84
2022/03/23 00:35:23;;;;;;;46.28;29.08;;;;;;;6.33;66.08;102929.81;4971100;28;20027;-84
2022/03/23 00:37:50;;;;;;;46.78;29.15;;;;;;;6.26;66.27;102922.13;4970337;28;20022;-84
2022/03/23 00:40:15;;;;;;;49.75;30.25;;;;;;;6.21;66.10;102923.97;4969688;28;20483;-84
2022/03/23 00:42:41;;;;;;;50.00;30.25;;;;;;;6.16;65.97;102927.59;4968427;28;20097;-84
2022/03/23 00:45:07;;;;;;;44.97;31.77;;;;;;;6.12;65.81;102926.81;4968551;28;20019;-84
2022/03/23 00:47:33;;;;;;;48.92;31.38;;;;;;;6.07;66.42;102918.22;4970220;28;20475;-84
2022/03/23 00:49:58;;;;;;;51.15;30.60;;;;;;;6.04;66.43;102925.25;4968720;28;20022;-84
2022/03/23 00:52:24;;;;;;;47.28;31.25;;;;;;;5.98;66.55;102914.00;4970884;28;20035;-84
2022/03/23 00:54:49;;;;;;;52.00;30.73;;;;;;;5.96;66.94;102923.63;4969842;28;20026;-84
2022/03/23 00:57:15;;;;;;;47.90;31.30;;;;;;;5.90;66.85;102921.16;4969175;28;20518;-84
2022/03/23 00:59:40;;;;;;;49.30;32.03;;;;;;;5.86;66.56;102921.22;4970341;28;20070;-84
2022/03/23 01:02:07;;;;;;;46.85;30.42;;;;;;;5.84;67.00;102912.56;4969145;28;20030;-84
2022/03/23 01:04:32;;;;;;;48.83;31.65;;;;;;;5.81;67.84;102921.31;4971070;28;20057;-84
2022/03/23 01:06:58;;;;;;;47.47;32.47;;;;;;;5.78;67.41;102917.91;4971795;28;20022;-84
2022/03/23 01:09:23;;;;;;;46.42;32.08;;;;;;;5.70;67.71;102917.22;4969322;28;20027;-84
2022/03/23 01:11:54;;;;;;;53.28;33.70;;;;;;;5.69;68.47;102918.13;4969465;28;20019;-84
2022/03/23 01:14:22;;;;;;;48.63;33.15;;;;;;;5.65;68.62;102922.53;4968896;28;20022;-84
2022/03/23 01:16:49;;;;;;;49.97;32.30;;;;;;;5.61;68.78;102924.34;4968416;28;20036;-84
2022/03/23 01:19:14;;;;;;;47.50;32.80;;;;;;;5.55;69.15;102918.38;4967015;28;20117;-84
2022/03/23 01:21:40;;;;;;;51.33;33.60;;;;;;;5.51;69.18;102912.34;4970921;28;20113;-84
2022/03/23 01:24:06;;;;;;;49.75;32.05;;;;;;;5.46;69.09;102916.81;4972404;28;20050;-84
2022/03/23 01:26:32;;;;;;;49.17;31.88;;;;;;;5.45;69.56;102912.47;4970746;28;20054;-84
2022/03/23 01:28:57;;;;;;;49.28;32.38;;;;;;;5.43;69.49;102919.47;4971053;28;20463;-84
2022/03/23 01:31:23;;;;;;;50.58;32.20;;;;;;;5.39;69.73;102910.00;4970966;28;20117;-84
2022/03/23 01:33:48;;;;;;;50.20;32.03;;;;;;;5.35;69.07;102906.56;4971639;28;20145;-83
2022/03/23 01:36:14;;;;;;;52.75;31.83;;;;;;;5.30;69.60;102908.41;4979039;28;20348;-83
2022/03/23 01:38:39;;;;;;;53.95;32.42;;;;;;;5.28;69.38;102910.19;4968045;28;20499;-83
2022/03/23 01:41:04;;;;;;;53.55;32.72;;;;;;;5.24;69.84;102902.47;4970004;28;20027;-83
2022/03/23 01:43:33;;;;;;;53.38;32.85;;;;;;;5.22;70.10;102901.63;4967784;28;20071;-84
2022/03/23 01:45:59;;;;;;;49.90;33.28;;;;;;;5.18;70.32;102907.75;4968550;28;20452;-84
2022/03/23 01:48:24;;;;;;;51.47;32.95;;;;;;;5.15;70.42;102905.22;4969411;28;20070;-84
2022/03/23 01:50:50;;;;;;;47.05;32.28;;;;;;;5.13;70.31;102904.38;4954023;28;20031;-84
2022/03/23 01:53:15;;;;;;;46.30;31.00;;;;;;;5.08;70.50;102903.59;4953019;28;20109;-84
2022/03/23 01:55:41;;;;;;;49.03;30.40;;;;;;;5.06;70.59;102902.78;4967489;28;20034;-84
2022/03/23 01:58:06;;;;;;;50.05;30.95;;;;;;;5.02;70.71;102905.44;4986126;28;20031;-84
2022/03/23 02:00:33;;;;;;;46.42;30.75;;;;;;;4.98;70.51;102903.78;4973867;28;20023;-84
2022/03/23 02:02:58;;;;;;;49.63;31.02;;;;;;;4.95;70.21;102890.78;4972175;28;20050;-84
2022/03/23 02:05:24;;;;;;;48.63;30.42;;;;;;;4.93;70.48;102896.94;4972572;28;20061;-84
2022/03/23 02:07:50;;;;;;;44.25;30.15;;;;;;;4.88;70.81;102891.78;4973964;28;20029;-84
2022/03/23 02:10:16;;;;;;;45.28;31.38;;;;;;;4.86;70.93;102896.19;4968887;28;20186;-83
2022/03/23 02:12:43;;;;;;;48.67;30.85;;;;;;;4.84;71.01;102892.75;4974095;28;20085;-84
2022/03/23 02:15:11;;;;;;;46.45;30.67;;;;;;;4.81;70.69;102897.16;4974400;28;20023;-83
2022/03/23 02:17:37;;;;;;;46.00;31.33;;;;;;;4.79;71.21;102889.31;4973747;28;20030;-84
2022/03/23 02:20:03;;;;;;;46.15;30.42;;;;;;;4.74;70.66;102896.38;4973447;28;20034;-84
2022/03/23 02:22:29;;;;;;;48.03;31.17;;;;;;;4.73;70.88;102897.25;4967087;28;20061;-84
2022/03/23 02:24:55;;;;;;;44.88;30.88;;;;;;;4.68;71.37;102901.69;4954705;28;20031;-84
2022/03/23 02:27:21;;;;;;;46.72;30.13;;;;;;;4.66;71.07;102900.84;4958196;28;20054;-84
2022/03/23 02:29:47;;;;;;;51.28;30.83;;;;;;;4.60;71.50;102898.34;4963029;28;20515;-84
2022/03/23 02:32:13;;;;;;;46.40;30.75;;;;;;;4.57;72.25;102895.78;4972834;28;20030;-84
2022/03/23 02:34:39;;;;;;;49.90;31.52;;;;;;;4.52;71.84;102897.63;4973227;28;20110;-84
2022/03/23 02:37:05;;;;;;;48.20;30.15;;;;;;;4.50;71.97;102899.38;4988403;28;20031;-84
2022/03/23 02:39:30;;;;;;;46.85;30.55;;;;;;;4.44;72.83;102891.66;4971586;28;20030;-84
2022/03/23 02:41:56;;;;;;;45.55;30.25;;;;;;;4.42;72.05;102894.31;4968662;28;20047;-84
2022/03/23 02:44:23;;;;;;;45.85;30.52;;;;;;;4.38;72.30;102896.06;4961722;28;20419;-84
2022/03/23 02:46:48;;;;;;;49.05;30.77;;;;;;;4.32;72.15;102896.16;4971667;28;20023;-84
2022/03/23 02:49:16;;;;;;;48.33;31.25;;;;;;;4.29;72.11;102893.59;4971523;28;20033;-85
2022/03/23 02:51:42;;;;;;;51.35;30.92;;;;;;;4.26;72.96;102888.44;4972659;28;20026;-84
2022/03/23 03:02:47;;;;;;;;;;;;;;;4.26;70.60;102888.44;4983498;28;20273;-84
2022/03/23 03:05:13;;;;;;;47.05;31.13;;;;;;;4.13;73.03;102902.53;4989998;28;19913;-84
2022/03/23 03:10:24;;;;;;;48.30;30.95;;;;;;;4.07;73.23;102898.28;4991523;28;20157;-84
2022/03/23 03:12:50;;;;;;;47.83;31.58;;;;;;;4.05;74.43;102887.03;4991272;28;20344;-84
2022/03/23 03:15:18;;;;;;;50.55;32.08;;;;;;;4.01;74.58;102892.28;4964378;28;20490;-84
2022/03/23 03:17:44;;;;;;;48.85;32.22;;;;;;;3.97;73.74;102891.44;4969588;28;20029;-84
2022/03/23 03:20:10;;;;;;;51.22;32.50;;;;;;;3.95;74.16;102892.34;4971507;28;20409;-84
2022/03/23 03:22:38;;;;;;;48.50;32.00;;;;;;;3.92;74.56;102900.19;4971610;28;20468;-84
2022/03/23 03:25:04;;;;;;;56.10;32.67;;;;;;;3.90;74.34;102901.97;4970990;28;20023;-84
2022/03/23 03:27:31;;;;;;;51.97;32.45;;;;;;;3.87;74.34;102902.00;4969951;28;20027;-84
2022/03/23 03:29:56;;;;;;;52.58;33.67;;;;;;;3.82;74.76;102904.69;4972419;28;20422;-84
2022/03/23 03:32:22;;;;;;;51.58;33.80;;;;;;;3.79;74.14;102899.50;4972543;28;20467;-84
2022/03/23 03:34:47;;;;;;;53.60;32.20;;;;;;;3.81;74.58;102902.09;4969525;28;20454;-85
2022/03/23 03:37:13;;;;;;;53.05;34.47;;;;;;;3.82;75.97;102898.59;4977087;28;20479;-84
2022/03/23 03:39:38;;;;;;;56.42;33.33;;;;;;;3.78;75.06;102896.03;4972626;28;20111;-84
2022/03/23 03:42:04;;;;;;;49.28;32.60;;;;;;;3.74;75.33;102904.78;4969848;28;20133;-84
2022/03/23 03:44:29;;;;;;;52.75;32.05;;;;;;;3.74;74.97;102904.78;4991971;28;20085;-84
2022/03/23 03:46:54;;;;;;;48.10;31.48;;;;;;;3.73;75.89;102903.06;4982044;28;20420;-84
2022/03/23 03:49:20;;;;;;;49.88;31.63;;;;;;;3.70;75.32;102895.28;4970009;28;20042;-84
2022/03/23 03:51:45;;;;;;;49.63;32.70;;;;;;;3.68;74.40;102902.25;4972095;28;20542;-84
2022/03/23 03:54:11;;;;;;;47.47;31.20;;;;;;;3.64;75.85;102908.38;4970204;28;20590;-84
2022/03/23 03:56:36;;;;;;;49.45;31.15;;;;;;;3.61;75.24;102907.56;4969213;28;20054;-84
2022/03/23 03:59:02;;;;;;;51.15;31.23;;;;;;;3.59;75.46;102907.56;4968910;28;20086;-84
2022/03/23 04:01:27;;;;;;;47.00;30.85;;;;;;;3.52;75.75;102905.91;4952246;28;20397;-84
2022/03/23 04:03:53;;;;;;;48.92;30.73;;;;;;;3.49;75.86;102908.53;4950265;28;20059;-84
2022/03/23 04:06:18;;;;;;;49.55;31.48;;;;;;;3.48;75.53;102906.81;4963009;28;20113;-84
2022/03/23 04:08:43;;;;;;;50.13;31.23;;;;;;;3.42;75.55;102899.09;4969984;28;20055;-84
2022/03/23 04:11:09;;;;;;;49.05;31.58;;;;;;;3.41;76.22;102907.78;4957662;28;20037;-84
2022/03/23 04:13:34;;;;;;;48.78;32.15;;;;;;;3.36;75.83;102913.03;4951899;28;20031;-84
2022/03/23 04:16:00;;;;;;;52.05;32.53;;;;;;;3.37;75.45;102913.88;4949794;28;20440;-84
2022/03/23 04:18:26;;;;;;;49.50;32.33;;;;;;;3.33;76.30;102914.81;4960655;28;20539;-84
2022/03/23 04:20:52;;;;;;;52.17;32.38;;;;;;;3.28;76.45;102921.81;4968074;28;20403;-84
2022/03/23 04:23:17;;;;;;;50.03;32.63;;;;;;;3.28;75.80;102916.59;4970756;28;20034;-84
2022/03/23 04:25:43;;;;;;;52.72;33.08;;;;;;;3.23;76.15;102910.59;4970458;28;20385;-84
2022/03/23 04:28:08;;;;;;;57.30;34.30;;;;;;;3.27;76.21;102915.72;4976002;28;20026;-84
2022/03/23 04:30:34;;;;;;;53.92;32.75;;;;;;;3.28;75.93;102914.84;4988998;28;20372;-84
2022/03/23 04:33:00;;;;;;;52.70;33.08;;;;;;;3.26;75.78;102907.94;4988208;28;20395;-84
2022/03/23 04:35:26;;;;;;;50.50;33.22;;;;;;;3.29;76.47;102915.72;4989645;28;20446;-84
2022/03/23 04:37:52;;;;;;;54.75;34.58;;;;;;;3.30;76.75;102913.09;4971597;28;20026;-84
2022/03/23 04:40:18;;;;;;;52.40;34.85;;;;;;;3.30;75.98;102923.50;4956977;28;20061;-84
2022/03/23 04:42:45;;;;;;;52.63;33.72;;;;;;;3.27;76.29;102918.34;4956149;28;20051;-84
2022/03/23 04:45:11;;;;;;;49.88;33.17;;;;;;;3.26;75.94;102921.81;4966315;28;20027;-84
2022/03/23 04:47:36;;;;;;;54.97;33.97;;;;;;;3.25;75.58;102924.44;4954019;28;20027;-84
2022/03/23 04:50:05;;;;;;;54.35;33.58;;;;;;;3.23;76.57;102929.66;4968836;28;20097;-84
2022/03/23 04:52:30;;;;;;;55.00;34.83;;;;;;;3.21;75.92;102927.94;4985855;28;20026;-84
2022/03/23 04:54:56;;;;;;;56.25;34.50;;;;;;;3.20;76.75;102931.38;4968869;28;20439;-84
2022/03/23 04:57:28;;;;;;;58.28;34.65;;;;;;;3.20;76.50;102931.38;4969524;28;20448;-84
2022/03/23 04:59:54;;;;;;;59.47;34.63;;;;;;;3.18;76.64;102943.56;4959192;28;20392;-84
2022/03/23 05:02:19;;;;;;;55.65;34.20;;;;;;;3.14;76.53;102943.59;4961159;28;20666;-84
2022/03/23 05:04:45;;;;;;;54.00;34.53;;;;;;;3.16;76.43;102940.97;4975819;28;20113;-84
2022/03/23 05:07:11;;;;;;;57.90;34.55;;;;;;;3.13;76.71;102944.47;4974940;28;20538;-84
2022/03/23 05:09:37;;;;;;;59.85;35.42;;;;;;;3.12;76.61;102947.94;4966580;28;20037;-84
2022/03/23 05:12:02;;;;;;;58.20;34.13;;;;;;;3.12;76.84;102957.47;4967783;28;20438;-84
2022/03/23 05:14:28;;;;;;;58.60;34.20;;;;;;;3.08;76.74;102954.03;4957042;28;20046;-84
2022/03/23 05:16:53;;;;;;;69.35;34.35;;;;;;;3.06;76.47;102949.72;4987828;28;20023;-84
2022/03/23 05:19:18;;;;;;;58.15;34.65;;;;;;;3.02;76.30;102954.09;4964298;28;20038;-84
2022/03/23 05:21:44;;;;;;;58.97;34.33;;;;;;;3.00;76.64;102950.66;4966690;28;20474;-84
2022/03/23 05:24:09;;;;;;;57.38;35.35;;;;;;;3.00;77.21;102950.66;4990275;28;20113;-84
2022/03/23 05:26:34;;;;;;;52.75;35.05;;;;;;;2.97;77.09;102948.09;4978954;28;20058;-83
2022/03/23 05:29:00;;;;;;;57.42;35.38;;;;;;;2.94;76.81;102945.50;4973444;28;20110;-84
2022/03/23 05:31:25;;;;;;;55.75;34.78;;;;;;;2.92;76.82;102947.28;4980093;28;20045;-83
2022/03/23 05:33:50;;;;;;;57.67;35.03;;;;;;;2.90;76.75;102959.41;4972596;28;20026;-84
2022/03/23 05:36:16;;;;;;;59.00;35.35;;;;;;;2.88;76.09;102955.09;4973960;28;20089;-84
2022/03/23 05:38:41;;;;;;;59.30;35.30;;;;;;;2.86;76.43;102954.25;4972423;28;20105;-84
2022/03/23 05:41:07;;;;;;;54.75;34.72;;;;;;;2.84;76.77;102956.88;4973127;28;20026;-83
2022/03/23 05:43:32;;;;;;;54.25;34.95;;;;;;;2.82;76.67;102963.81;4974410;28;20125;-84
2022/03/23 05:45:58;;;;;;;57.92;34.55;;;;;;;2.81;76.92;102956.91;4971154;28;20061;-84
2022/03/23 05:48:23;;;;;;;56.00;33.95;;;;;;;2.77;76.70;102958.63;4974416;28;20491;-83
2022/03/23 05:50:48;;;;;;;55.17;35.38;;;;;;;2.76;76.88;102959.50;4994357;28;20506;-84
2022/03/23 05:53:13;;;;;;;53.67;34.28;;;;;;;2.76;77.48;102961.25;4973016;28;20120;-84
2022/03/23 05:55:39;;;;;;;53.03;33.78;;;;;;;2.75;76.92;102964.72;4954486;28;20042;-84
2022/03/23 05:58:04;;;;;;;63.03;35.40;;;;;;;2.73;77.29;102961.25;4972363;28;20033;-84
2022/03/23 06:00:31;;;;;;;53.13;34.40;;;;;;;2.72;77.00;102963.00;4975091;28;20022;-84
2022/03/23 06:02:56;;;;;;;52.85;34.75;;;;;;;2.71;77.19;102969.06;4977444;28;20026;-84
2022/03/23 06:05:22;;;;;;;55.67;35.55;;;;;;;2.71;77.84;102968.22;4973748;28;20039;-83
2022/03/23 06:07:47;;;;;;;53.38;34.22;;;;;;;2.70;77.70;102972.56;4973401;28;20110;-84
2022/03/23 06:10:12;;;;;;;53.40;34.13;;;;;;;2.71;77.95;102976.00;4971481;28;20058;-84
2022/03/23 06:12:38;;;;;;;57.17;34.67;;;;;;;2.70;78.45;102962.16;4973002;28;20038;-85
2022/03/23 06:15:05;;;;;;;56.78;34.80;;;;;;;2.72;78.48;102977.72;4973600;28;20019;-84
2022/03/23 06:17:31;;;;;;;56.40;35.35;;;;;;;2.71;78.35;102970.81;4986072;28;20030;-84
2022/03/23 06:19:56;;;;;;;56.80;34.53;;;;;;;2.73;77.49;102982.91;4983366;28;20037;-84
2022/03/23 06:22:22;;;;;;;56.05;35.70;;;;;;;2.72;78.63;102978.59;4955550;28;20027;-84
2022/03/23 06:24:47;;;;;;;54.55;34.47;;;;;;;2.74;78.08;102973.38;4963639;28;20030;-84
2022/03/23 06:27:13;;;;;;;59.63;36.38;;;;;;;2.75;77.86;102977.72;4978089;28;20023;-84
2022/03/23 06:29:39;;;;;;;58.40;34.83;;;;;;;2.77;78.39;102978.56;4981439;28;20498;-84
2022/03/23 06:34:55;;;;;;;58.10;36.80;;;;;;;2.89;79.18;102977.63;3318637;26;20049;-85
2022/03/23 06:37:21;;;;;;;66.18;37.50;;;;;;;2.93;79.22;102980.19;5031038;28;20017;-85
2022/03/23 06:39:46;;;;;;;57.65;36.88;;;;;;;2.95;79.18;102983.63;5031627;28;20060;-85
2022/03/23 06:42:11;;;;;;;68.80;38.70;;;;;;;2.98;78.40;102988.81;5031892;28;20135;-84
2022/03/23 06:44:38;;;;;;;63.85;37.05;;;;;;;3.00;78.72;102992.25;5031171;28;20163;-82
2022/03/23 06:47:04;;;;;;;58.88;37.85;;;;;;;3.06;79.54;102994.81;5031378;28;20029;-82
2022/03/23 06:49:29;;;;;;;65.57;38.00;;;;;;;3.11;78.53;102995.63;5031738;28;20521;-82
2022/03/23 06:51:54;;;;;;;62.17;38.22;;;;;;;3.18;78.92;102999.03;5036798;28;20051;-82
2022/03/23 06:54:19;;;;;;;58.97;38.05;;;;;;;3.23;79.38;102999.03;5040815;28;20030;-82
2022/03/23 06:56:45;;;;;;;56.22;37.17;;;;;;;3.29;77.61;102999.81;5039469;28;20103;-85
2022/03/23 06:59:10;;;;;;;64.85;38.95;;;;;;;3.34;78.75;102997.19;5024115;28;20029;-85
2022/03/23 07:01:36;;;;;;;66.70;39.25;;;;;;;3.41;78.68;102996.25;5028527;28;20075;-80
2022/03/23 07:04:01;;;;;;;64.82;39.92;;;;;;;3.45;78.43;102997.94;5011953;28;20128;-82
2022/03/23 07:06:26;;;;;;;69.53;40.53;;;;;;;3.54;79.11;103005.63;5027859;28;20061;-82
2022/03/23 07:11:36;;;;;;;66.32;39.17;;;;;;;3.69;77.31;102999.44;5031791;28;20091;-85
2022/03/23 07:14:01;;;;;;;65.00;38.60;;;;;;;3.78;77.39;103005.41;5039224;28;20028;-82
2022/03/23 07:16:28;;;;;;;74.38;41.58;;;;;;;3.89;78.15;103001.81;5034207;28;20441;-85
2022/03/23 07:18:53;;;;;;;62.40;40.33;;;;;;;3.98;77.78;103001.69;5045243;28;20440;-85
2022/03/23 07:21:18;;;;;;;65.32;40.35;;;;;;;4.08;77.21;103005.94;5030525;28;20033;-85
2022/03/23 07:23:44;;;;;;;64.18;39.90;;;;;;;4.22;76.42;103009.22;5026904;28;20052;-84
2022/03/23 07:26:09;;;;;;;63.83;39.60;;;;;;;4.34;75.80;103008.19;5038264;28;20032;-84
2022/03/23 07:28:35;;;;;;;64.40;40.08;;;;;;;4.45;75.63;103008.06;5010505;28;20026;-84
2022/03/23 07:31:00;;;;;;;65.72;40.33;;;;;;;4.61;75.83;103006.94;5027184;28;20033;-84
2022/03/23 07:33:26;;;;;;;60.35;38.58;;;;;;;4.74;75.02;103008.50;5039583;28;20151;-81
2022/03/23 07:35:52;;;;;;;57.60;37.97;;;;;;;4.88;74.11;103009.16;5024332;28;20036;-82
2022/03/23 07:38:18;;;;;;;63.42;39.10;;;;;;;5.03;73.79;103011.53;5021549;28;20112;-83
2022/03/23 07:40:43;;;;;;;65.35;39.00;;;;;;;5.19;72.60;103011.25;5012592;28;20037;-83
2022/03/23 07:43:09;;;;;;;67.97;38.00;;;;;;;5.34;73.22;103009.25;5030613;28;20030;-83
2022/03/23 07:45:34;;;;;;;61.42;37.67;;;;;;;5.45;72.20;103011.69;5015807;28;20398;-83
2022/03/23 07:47:59;;;;;;;59.42;36.92;;;;;;;5.53;71.84;103015.00;5010452;28;20165;-83
2022/03/23 07:50:26;;;;;;;60.90;37.28;;;;;;;5.71;71.28;103016.44;5012549;28;20037;-86
2022/03/23 07:52:51;;;;;;;58.05;37.78;;;;;;;5.82;70.89;103016.22;5041591;28;20040;-86
2022/03/23 07:55:17;;;;;;;58.72;36.60;;;;;;;5.97;71.52;103015.94;5049329;28;20021;-83
2022/03/23 07:57:42;;;;;;;59.53;36.00;;;;;;;6.11;71.06;103021.78;5033135;28;20123;-83
2022/03/23 08:00:08;;;;;;;57.88;35.95;;;;;;;6.26;69.45;103029.28;5030658;28;20025;-81
2022/03/23 08:02:33;;;;;;;56.22;36.67;;;;;;;6.43;68.16;103025.47;5029025;28;20026;-81
2022/03/23 08:04:59;;;;;;;57.95;36.17;;;;;;;6.57;67.75;103020.78;5023465;28;20033;-83
2022/03/23 08:07:24;;;;;;;59.15;37.13;;;;;;;6.73;67.90;103024.78;5028376;28;20389;-81
2022/03/23 08:09:50;;;;;;;60.90;36.03;;;;;;;6.84;66.97;103022.78;5025820;28;20163;-80
2022/03/23 08:12:17;;;;;;;61.35;35.03;;;;;;;6.97;66.44;103022.50;5027799;28;20099;-81
2022/03/23 08:14:44;;;;;;;52.95;35.60;;;;;;;7.12;67.01;103027.34;5030478;28;20032;-81
2022/03/23 08:17:09;;;;;;;55.50;36.38;;;;;;;7.23;66.68;103015.72;5011761;28;20044;-80
2022/03/23 08:19:35;;;;;;;55.45;36.03;;;;;;;7.36;66.70;103021.50;5030625;28;20021;-84
2022/03/23 08:22:01;;;;;;;55.13;34.83;;;;;;;7.51;65.59;103021.09;5028894;28;20025;-81
2022/03/23 08:24:26;;;;;;;57.55;35.45;;;;;;;7.63;65.32;103025.19;5030186;28;20429;-81
2022/03/23 08:26:51;;;;;;;57.72;33.80;;;;;;;7.81;64.05;103026.44;5030595;28;20514;-81
2022/03/23 08:29:17;;;;;;;58.63;35.45;;;;;;;7.97;63.54;103022.47;5029580;28;20028;-81
2022/03/23 08:31:42;;;;;;;53.63;34.05;;;;;;;8.09;63.12;103019.53;5028226;28;20068;-81
2022/03/23 08:34:07;;;;;;;56.58;34.83;;;;;;;8.26;63.23;103019.00;5028592;28;20049;-83
2022/03/23 08:36:33;;;;;;;54.10;34.60;;;;;;;8.41;62.09;103017.75;5029202;28;20033;-83
2022/03/23 08:38:58;;;;;;;57.05;33.63;;;;;;;8.59;62.08;103013.69;5029352;28;20025;-84
2022/03/23 08:41:24;;;;;;;50.88;33.88;;;;;;;8.73;60.23;103014.97;5028514;28;20021;-81
2022/03/23 08:43:49;;;;;;;52.63;33.50;;;;;;;8.93;60.21;103016.13;5017917;28;20109;-84
2022/03/23 08:46:15;;;;;;;50.92;33.38;;;;;;;9.13;58.39;103018.94;5009446;28;20021;-80
2022/03/23 08:48:40;;;;;;;50.70;32.75;;;;;;;9.28;59.38;103018.47;5016179;28;20052;-81
2022/03/23 08:51:06;;;;;;;53.90;34.33;;;;;;;9.41;57.80;103025.00;5024644;28;20036;-81
2022/03/23 08:53:31;;;;;;;51.90;34.25;;;;;;;9.58;59.00;103023.56;5026830;28;20028;-84
2022/03/23 08:55:57;;;;;;;52.75;33.70;;;;;;;9.73;57.59;103023.03;5030145;28;20033;-81
2022/03/23 08:58:23;;;;;;;50.60;33.95;;;;;;;9.93;57.96;103015.28;5028271;28;20029;-84
2022/03/23 09:00:48;;;;;;;56.15;35.47;;;;;;;10.15;56.47;103014.50;5027689;28;20013;-82
2022/03/23 09:03:14;;;;;;;56.47;33.78;;;;;;;10.28;56.10;103015.78;5029727;28;20025;-84
2022/03/23 09:05:40;;;;;;;46.30;32.38;;;;;;;10.44;56.34;103016.06;5011400;28;20018;-80
2022/03/23 09:08:08;;;;;;;50.50;32.33;;;;;;;10.57;54.39;103015.50;5028144;28;20021;-85
2022/03/23 09:10:34;;;;;;;47.92;31.65;;;;;;;10.73;53.62;103013.13;5029684;28;20121;-85
2022/03/23 09:13:01;;;;;;;52.92;34.10;;;;;;;10.89;54.48;103018.66;5029225;28;20021;-84
2022/03/23 09:15:27;;;;;;;48.85;34.80;;;;;;;11.02;54.92;103019.84;5027606;28;20025;-83
2022/03/23 09:17:58;;;;;;;47.72;33.42;;;;;;;11.20;55.55;103013.81;5027330;28;20500;-84
2022/03/23 09:20:28;;;;;;;49.75;34.22;;;;;;;11.36;54.80;103014.03;5027918;28;20018;-84
2022/03/23 09:22:54;;;;;;;55.17;33.75;;;;;;;11.49;53.39;103019.63;5028806;28;20040;-84
2022/03/23 09:25:22;;;;;;;55.05;34.50;;;;;;;11.63;53.01;103014.66;5020766;28;20508;-82
2022/03/23 09:27:48;;;;;;;48.03;32.33;;;;;;;11.84;51.76;103010.22;5024893;28;20417;-83
2022/03/23 09:30:15;;;;;;;47.97;31.52;;;;;;;12.03;49.29;103005.00;5016498;28;20498;-90
2022/03/23 09:32:42;;;;;;;49.10;31.83;;;;;;;12.16;48.96;103006.13;5025126;28;20059;-80
2022/03/23 09:35:09;;;;;;;47.72;32.80;;;;;;;12.32;48.80;103006.28;5026511;28;20386;-80
2022/03/23 09:37:50;;;;;;;48.47;32.45;;;;;;;12.49;50.10;102999.28;5029492;28;20025;-82
2022/03/23 09:40:24;;;;;;;50.85;31.45;;;;;;;12.69;49.19;103013.31;5026157;28;20600;-82
2022/03/23 09:42:50;;;;;;;48.53;31.92;;;;;;;12.84;48.73;103009.94;5027901;28;20029;-84
2022/03/23 09:45:28;;;;;;;47.42;30.75;;;;;;;13.01;45.64;103007.31;5029290;28;20110;-84
2022/03/23 09:47:53;;;;;;;43.40;27.95;;;;;;;13.18;45.85;103007.34;5023032;28;20025;-83
2022/03/23 09:50:19;;;;;;;42.70;28.30;;;;;;;13.36;45.20;103002.94;5027450;28;20668;-84
2022/03/23 09:52:45;;;;;;;42.65;26.83;;;;;;;13.51;41.94;103006.56;5027834;28;20036;-83
2022/03/23 09:55:10;;;;;;;41.08;27.58;;;;;;;13.68;42.92;103008.34;5028431;28;20025;-83
2022/03/23 09:57:37;;;;;;;44.08;27.60;;;;;;;13.85;42.11;103002.16;5028029;28;20061;-85
2022/03/23 10:00:03;;;;;;;43.13;28.00;;;;;;;14.02;41.65;103002.13;5018413;28;20080;-84
2022/03/23 10:02:41;;;;;;;42.47;26.38;;;;;;;14.24;42.52;103007.09;5028951;28;20533;-87
2022/03/23 10:05:57;;;;;;;37.13;26.35;;;;;;;14.36;43.10;103001.97;5028075;28;20048;-87
2022/03/23 10:08:41;;;;;;;50.05;26.00;;;;;;;14.59;40.25;103002.53;5014195;28;20478;-86
2022/03/23 10:11:37;;;;;;;36.97;25.67;;;;;;;14.73;40.97;103010.53;5028433;28;20026;-84
2022/03/23 10:14:14;;;;;;;64.45;28.27;;;;;;;14.93;40.43;103014.72;5028911;28;20514;-85
2022/03/23 10:17:13;;;;;;;41.45;27.58;;;;;;;15.10;39.50;103017.22;5026986;28;20087;-84
2022/03/23 10:19:43;;;;;;;38.45;27.52;;;;;;;15.28;38.05;103008.19;5031464;28;20029;-82
2022/03/23 10:22:13;;;;;;;37.28;25.75;;;;;;;15.46;37.51;103006.25;5026536;28;20022;-83
2022/03/23 10:24:38;;;;;;;42.10;25.05;;;;;;;15.59;37.95;103007.22;5030264;28;20033;-86
2022/03/23 10:27:12;;;;;;;33.75;25.25;;;;;;;15.73;37.28;103013.50;5029396;28;20486;-82
2022/03/23 10:29:48;;;;;;;36.33;26.65;;;;;;;15.90;36.72;103003.56;5020263;28;20079;-86
2022/03/23 10:32:17;;;;;;;39.03;27.58;;;;;;;16.06;35.83;102997.31;5032907;28;20025;-85
2022/03/23 10:34:47;;;;;;;38.97;26.33;;;;;;;16.23;36.90;102997.94;5032504;28;20057;-86
2022/03/23 10:37:14;;;;;;;34.28;25.48;;;;;;;16.35;36.61;102996.28;5030194;28;20037;-86
2022/03/23 10:39:40;;;;;;;41.58;26.58;;;;;;;16.46;35.65;102987.66;5030982;28;20075;-86
2022/03/23 10:42:14;;;;;;;37.88;26.02;;;;;;;16.68;36.98;102987.13;5018589;28;20030;-82
2022/03/23 10:44:40;;;;;;;35.22;26.35;;;;;;;16.88;36.21;102987.53;5012280;28;20026;-82
2022/03/23 10:47:05;;;;;;;37.38;26.60;;;;;;;17.01;36.60;102994.69;5024434;28;20034;-82
2022/03/23 10:49:38;;;;;;;34.60;24.17;;;;;;;17.17;36.06;102984.69;5020034;28;20029;-82
2022/03/23 10:52:13;;;;;;;33.67;24.02;;;;;;;17.39;33.48;102979.63;5031176;28;20531;-82
2022/03/23 10:54:38;;;;;;;36.78;25.73;;;;;;;17.52;35.50;102980.47;5032348;28;20029;-82
2022/03/23 10:57:04;;;;;;;35.40;25.52;;;;;;;17.63;33.33;102976.25;5018802;28;20034;-86
2022/03/23 10:59:29;;;;;;;35.40;23.58;;;;;;;17.83;33.08;102967.72;5018234;28;20030;-86
2022/03/23 11:02:04;;;;;;;31.35;23.63;;;;;;;17.97;31.66;102974.72;5031755;28;20022;-86
2022/03/23 11:04:53;;;;;;;36.20;26.13;;;;;;;18.11;31.96;102978.13;5024746;28;20021;-86
2022/03/23 11:07:25;;;;;;;45.10;26.10;;;;;;;18.28;33.67;102978.69;5027614;28;20104;-84
2022/03/23 11:18:17;;;;;;;30.10;22.45;;;;;;;18.87;33.18;102976.16;5031478;28;20060;-80
2022/03/23 11:20:44;;;;;;;27.70;20.67;;;;;;;19.05;31.20;102964.91;5031058;28;20037;-84
2022/03/23 11:23:26;;;;;;;31.00;23.17;;;;;;;19.24;30.62;102967.06;5031513;28;20061;-83
2022/03/23 11:25:55;;;;;;;29.98;22.52;;;;;;;19.47;30.51;102962.56;5030069;28;20463;-83
2022/03/23 11:28:22;;;;;;;30.65;21.85;;;;;;;19.57;28.53;102957.38;5031989;28;20098;-83
2022/03/23 11:30:48;;;;;;;31.55;22.98;;;;;;;19.70;29.15;102967.00;5030862;28;20087;-83
2022/03/23 11:33:16;;;;;;;29.30;20.70;;;;;;;19.84;27.95;102957.88;5019012;28;20735;-83
2022/03/23 11:35:48;;;;;;;25.30;20.42;;;;;;;19.99;29.22;102961.16;5026636;28;20073;-83
2022/03/23 11:38:19;;;;;;;23.88;19.20;;;;;;;20.18;28.66;102957.84;5024403;28;20129;-84
2022/03/23 11:40:46;;;;;;;27.02;20.27;;;;;;;20.36;27.86;102951.00;5027973;28;20026;-84